Tiempo atmosférico en la estación meteorológica de Los Tojos, Bárcena Mayor, Cantabria (455 m.)



Fecha
DESCASC
Temp. máxima en grados centígrados (hora)
DESCASC
Temp. mínima en grados centígrados (hora)
DESCASC
Temp. media en grados centígrados
DESCASC
Racha de viento máxima en m/sg (hora)
DESCASC
Velocidad máxima media en intervalos de 10 minutos(hora)
DESCASC
Precipitaciones diarias en mm
DESCASC
Precipitaciones de 00:00 a 06:00 en mm
DESCASC
Precipitaciones de 06:00 a 12:00 en mm
DESCASC
Precipitaciones de 12:00 a 18:00 en mm
DESCASC
Precipitaciones de 18:00 a 24:00 en mm
DESCASC
19-09-2019 24.6 (15:40) 9.3 (08:40) 17 5.28 (17:50) 2.5 (18:00) 0 0 0 0 0
18-09-2019 23.3 (15:50) 14.5 (08:40) 18.9 5 (17:30) 2.5 (17:30) 0.2 0.2 0 0 0
17-09-2019 26.6 (14:40) 12.1 (00:00) 19.4 6.11 (16:40) 3.33 (16:40) 0 0 0 0 0
16-09-2019 25.1 (13:40) 12.2 (00:00) 18.7 6.67 (03:00) 3.33 (16:00) 0.6 0 0 0 0.6
15-09-2019 24.6 (15:20) 12.3 (00:00) 18.5 5.28 (11:10) 2.22 (14:00) 1.2 0 1.2 0 0
14-09-2019 26.5 (15:20) 13.2 (00:00) 19.8 5 (16:50) 2.5 (16:50) 0 0 0 0 0
13-09-2019 24 (16:30) 8.2 (00:00) 16.1 5.56 (15:30) 2.78 (14:50) 0 0 0 0 0
12-09-2019 23.5 (16:20) 6 (00:00) 14.8 5.83 (12:30) 3.33 (13:50) 0 0 0 0 0
11-09-2019 18.5 (17:00) 11.3 (00:00) 14.9 6.39 (01:40) 2.78 (00:10) 0.6 0.2 0.2 0.2 0
10-09-2019 13.3 (18:00) 8.9 (07:00) 11.1 13.89 (14:30) 6.94 (17:10) 84.4 8.2 20.4 46.2 9.6
09-09-2019 17.9 (13:30) 8.1 (06:10) 13 12.22 (23:00) 4.17 (22:40) 2.2 0 0 0 2.2
08-09-2019 19.9 (15:40) 9.2 (00:00) 14.5 5 (15:50) 1.67 (15:50) 0 0 0 0 0
07-09-2019 20.2 (15:10) 5.9 (00:00) 13.1 5.56 (17:50) 2.5 (15:00) 0 0 0 0 0
06-09-2019 17.1 (15:20) 10.3 (00:00) 13.7 9.44 (18:40) 2.78 (13:50) 0.2 0.2 0 0 0
05-09-2019 16.6 (13:30) 12.2 (00:00) 14.4 8.89 (14:20) 4.72 (14:20) 10 2 1.8 2.4 3.8
04-09-2019 22.1 (15:20) 6.5 (00:00) 14.3 7.78 (17:50) 4.17 (17:00) 0 0 0 0 0
03-09-2019 24.1 (15:20) 5.5 (00:00) 14.8 6.67 (11:50) 3.06 (11:50) 0 0 0 0 0
02-09-2019 20.4 (17:20) 10.2 (00:00) 15.3 6.39 (17:30) 2.78 (18:20) 2.2 1.8 0.4 0 0
01-09-2019 19.3 (15:10) 12.9 (00:00) 16.1 8.06 (20:40) 3.89 (20:20) 8.2 0.2 2.2 4.4 1.4
31-08-2019 21.3 (14:30) 11.7 (00:00) 16.5 5 (16:20) 2.22 (16:10) 0.4 0 0 0 0.4
30-08-2019 26.7 (15:50) 16.8 (00:00) 21.8 6.39 (16:00) 3.33 (16:10) 0 0 0 0 0
29-08-2019 22.9 (13:20) 16.6 (00:00) 19.8 4.44 (15:50) 2.22 (15:50) 0.6 0 0 0.2 0.4
28-08-2019 23.5 (14:20) 16.3 (00:00) 19.9 4.17 (14:40) 2.22 (14:40) 0.2 0 0 0 0.2
27-08-2019 23.8 (15:20) 11.9 (00:00) 17.8 6.67 (14:00) 2.78 (14:00) 0 0 0 0 0
26-08-2019 26.1 (16:10) 12.8 (00:00) 19.5 6.67 (16:20) 2.78 (16:20) 5.4 0.2 0 5.2 0
25-08-2019 21.6 (14:00) 12.6 (00:00) 17.1 5.28 (14:10) 2.5 (12:20) 11.4 0 0 0 11.4
24-08-2019 26.2 (14:20) 10.2 (00:00) 18.2 6.67 (15:30) 3.61 (15:20) 0 0 0 0 0
23-08-2019 31.1 (14:40) 5.5 (00:00) 18.3 6.11 (15:50) 3.06 (16:00) 0 0 0 0 0
22-08-2019 26.7 (15:50) 6.7 (00:00) 16.7 5 (18:40) 2.22 (17:40) 0 0 0 0 0
21-08-2019 23.9 (15:20) 8.8 (00:00) 16.3 5 (16:40) 3.06 (17:00) 0 0 0 0 0

Gráficas

Temp. máximas Temp. mínimas Temp. medias Precipitaciones Rachas de viento máximas Velocidades máximas media en intervalos de 10 minutos

Datos horarios

Fecha y hora oficial Temperatura (ºC) Velocidad del viento (km/h) Dirección del viento Racha (km/h) Dirección de racha Precipitación (mm) Presión (hPa) Tendencia (hPa) Humedad (%)
2019-09-19 23:00:00 15.4 0 Calma 4 Sur 0 -- -- 95
2019-09-19 22:00:00 16.7 0 Calma 4 Noroeste 0 -- -- 94
2019-09-19 21:00:00 17.5 2 Noroeste 9 Noroeste 0 -- -- 91
2019-09-19 20:00:00 18.5 4 Noroeste 13 Norte 0 -- -- 89
2019-09-19 19:00:00 19.7 5 Noroeste 15 Noroeste 0 -- -- 85
2019-09-19 18:00:00 22.5 9 Noroeste 19 Noroeste 0 -- -- 76
2019-09-19 17:00:00 23.5 8 Oeste 17 Noroeste 0 -- -- 76
2019-09-19 16:00:00 24.4 8 Noroeste 16 Noroeste 0 -- -- 68
2019-09-19 15:00:00 24.2 8 Noroeste 16 Noroeste 0 -- -- 65
2019-09-19 14:00:00 23.3 5 Oeste 13 Oeste 0 -- -- 63
2019-09-19 13:00:00 22.3 3 Sudoeste 7 Norte 0 -- -- 69
2019-09-19 12:00:00 19 3 Oeste 6 Noroeste 0 -- -- 80
2019-09-19 11:00:00 14.2 0 Calma 4 Este 0 -- -- 99
2019-09-19 10:00:00 11.6 2 Este 4 Nordeste 0 -- -- 100
2019-09-19 09:00:00 9.5 0 Calma 3 Nordeste 0 -- -- 100
2019-09-19 08:00:00 9.5 0 Calma 3 Este 0 -- -- 100
2019-09-19 07:00:00 10.1 0 Calma 2 Nordeste 0 -- -- 100
2019-09-19 06:00:00 10.8 0 Calma 6 Sur 0 -- -- 99
2019-09-19 05:00:00 11.9 0 Calma 4 Sur 0 -- -- 98
2019-09-19 04:00:00 13.2 0 Calma 4 Sur 0 -- -- 96
2019-09-19 03:00:00 14.9 0 Calma 5 Sur 0 -- -- 94
2019-09-19 02:00:00 16 3 Sudeste 6 Este 0 -- -- 93
2019-09-19 01:00:00 16.6 0 Calma 4 Sur 0 -- -- 93
2019-09-19 00:00:00 17.1 2 Norte 5 Norte 0 -- -- 98
2019-09-18 23:00:00 17.2 0 Calma 4 Oeste 0 -- -- 98
2019-09-18 22:00:00 17.2 0 Calma 7 Noroeste 0 -- -- 97
2019-09-18 21:00:00 18.2 3 Noroeste 10 Noroeste 0 -- -- 94
2019-09-18 20:00:00 19.1 2 Noroeste 9 Noroeste 0 -- -- 91
2019-09-18 19:00:00 19.6 4 Oeste 9 Noroeste 0 -- -- 88
2019-09-18 18:00:00 20.1 3 Sudoeste 18 Oeste 0 -- -- 85
2019-09-18 17:00:00 21.2 4 Nordeste 16 Oeste 0 -- -- 82
2019-09-18 16:00:00 23.2 5 Oeste 14 Noroeste 0 -- -- 75
2019-09-18 15:00:00 22.6 5 Noroeste 11 Noroeste 0 -- -- 71
2019-09-18 14:00:00 22.4 5 Oeste 12 Noroeste 0 -- -- 73
2019-09-18 13:00:00 21.7 3 Oeste 11 Norte 0 -- -- 77
2019-09-18 12:00:00 19.2 5 Noroeste 9 Noroeste 0 -- -- 92
2019-09-18 11:00:00 17.9 4 Noroeste 9 Norte 0 -- -- 96
2019-09-18 10:00:00 16.1 0 Calma 4 Oeste 0 -- -- 100
2019-09-18 09:00:00 14.5 0 Calma 3 Este 0 -- -- 100
2019-09-18 08:00:00 15 0 Calma 2 Sur 0 -- -- 100
2019-09-18 07:00:00 15.4 0 Calma 5 Este 0 -- -- 99
2019-09-18 06:00:00 16.4 0 Calma 4 Este 0 -- -- 99
2019-09-18 05:00:00 17.2 0 Calma 5 Este 0.2 -- -- 99
2019-09-18 04:00:00 17.8 0 Calma 3 Sudoeste 0 -- -- 99
2019-09-18 03:00:00 18.1 0 Calma 5 Noroeste 0 -- -- 100
2019-09-18 02:00:00 18.2 2 Noroeste 4 Noroeste 0 -- -- 99
2019-09-18 01:00:00 18.4 0 Calma 5 Noroeste 0 -- -- 99
2019-09-18 00:00:00 18.6 2 Oeste 10 Oeste 0 -- -- 98
2019-09-17 23:00:00 19 3 Noroeste 6 Noroeste 0 -- -- 98
2019-09-17 22:00:00 19.1 3 Oeste 8 Noroeste 0 -- -- 98
2019-09-17 21:00:00 19.7 0 Calma 8 Oeste 0 -- -- 96
2019-09-15 18:00:00 22.7 3 Norte 12 Noroeste 0 -- -- 79
2019-09-15 17:00:00 23.4 3 Norte 14 Noroeste 0 -- -- 76
2019-09-15 16:00:00 22.4 0 Calma 8 Norte 0 -- -- 84
2019-09-15 15:00:00 24.5 3 Sur 16 Norte 0 -- -- 74
2019-09-15 14:00:00 23.2 8 Noroeste 14 Noroeste 0 -- -- 77
2019-09-15 13:00:00 21.5 2 Sudoeste 14 Nordeste 0 -- -- 88
2019-09-15 12:00:00 17.4 5 Norte 19 Nordeste 0.6 -- -- 100
2019-09-15 11:00:00 16.6 3 Sudeste 8 Este 0.6 -- -- 100
2019-09-15 10:00:00 14.8 3 Este 4 Este 0 -- -- 100
2019-09-15 09:00:00 13 0 Calma 6 Sur 0 -- -- 100
2019-09-15 08:00:00 12.3 3 Este 6 Este 0 -- -- 100
2019-09-15 07:00:00 12.4 0 Calma 4 Este 0 -- -- 100
2019-09-15 06:00:00 12.8 0 Calma 3 Sudeste 0 -- -- 100
2019-09-15 05:00:00 13.4 0 Calma 5 Este 0 -- -- 100
2019-09-15 04:00:00 13.9 0 Calma 3 Sudeste 0 -- -- 100
2019-09-15 03:00:00 14.4 0 Calma 3 Nordeste 0 -- -- 100
2019-09-15 02:00:00 14.7 0 Calma 4 Sur 0 -- -- 100
2019-09-15 01:00:00 14.8 2 Este 4 Nordeste 0 -- -- 99
2019-09-15 00:00:00 15.6 0 Calma 4 Este 0 -- -- 99
2019-09-14 23:00:00 16.5 0 Calma 5 Nordeste 0 -- -- 97
2019-09-14 22:00:00 17.8 2 Este 4 Este 0 -- -- 94
2019-09-14 21:00:00 19.3 0 Calma 10 Noroeste 0 -- -- 92
2019-09-14 20:00:00 21 4 Oeste 14 Noroeste 0 -- -- 88
2019-09-14 19:00:00 23.2 5 Oeste 13 Oeste 0 -- -- 78
2019-09-14 18:00:00 24.9 5 Oeste 17 Este 0 -- -- 71
2019-09-14 17:00:00 24.8 4 Este 18 Este 0 -- -- 67
2019-09-14 16:00:00 26 8 Noroeste 14 Norte 0 -- -- 70
2019-09-14 15:00:00 26.2 3 Sur 14 Este 0 -- -- 63
2019-09-14 14:00:00 25.6 5 Este 18 Este 0 -- -- 60
2019-09-14 13:00:00 24.8 4 Este 12 Este 0 -- -- 61
2019-09-14 12:00:00 22.7 3 Sudeste 11 Nordeste 0 -- -- 81
2019-09-14 11:00:00 19.2 5 Nordeste 11 Este 0 -- -- 91
2019-09-14 10:00:00 16.4 2 Este 4 Este 0 -- -- 100
2019-09-14 09:00:00 14.6 3 Sudoeste 5 Este 0 -- -- 100
2019-09-14 08:00:00 13.6 2 Este 4 Sur 0 -- -- 100
2019-09-14 07:00:00 13.3 0 Calma 4 Este 0 -- -- 100
2019-09-14 06:00:00 13.3 2 Sudeste 4 Este 0 -- -- 100
2019-09-14 05:00:00 13.3 0 Calma 3 Este 0 -- -- 100
2019-09-14 04:00:00 13.4 0 Calma 4 Este 0 -- -- 100
2019-09-14 03:00:00 14.2 0 Calma 3 Este 0 -- -- 100
2019-09-14 02:00:00 14.5 0 Calma 3 Este 0 -- -- 100
2019-09-14 01:00:00 14.6 2 Sudeste 4 Sudeste 0 -- -- 99
2019-09-14 00:00:00 15.4 0 Calma 4 Sur 0 -- -- 98
2019-09-13 23:00:00 16.8 0 Calma 3 Este 0 -- -- 97
2019-09-13 22:00:00 17.3 0 Calma 4 Este 0 -- -- 96
2019-09-13 21:00:00 17.6 0 Calma 6 Noroeste 0 -- -- 95
2019-09-13 20:00:00 18.8 3 Sudoeste 10 Noroeste 0 -- -- 91
2019-09-13 19:00:00 20.8 3 Noroeste 10 Oeste 0 -- -- 85
2019-09-13 18:00:00 23 5 Oeste 15 Oeste 0 -- -- 75
2019-09-13 17:00:00 22.9 3 Sudoeste 15 Este 0 -- -- 76
2019-09-13 16:00:00 23.7 5 Sudeste 20 Oeste 0 -- -- 67
2019-09-13 15:00:00 23.6 9 Oeste 19 Oeste 0 -- -- 63
2019-09-13 14:00:00 23.6 8 Noroeste 14 Noroeste 0 -- -- 62
2019-09-13 13:00:00 22.2 3 Oeste 7 Noroeste 0 -- -- 67
2019-09-13 12:00:00 18.5 3 Sur 6 Sur 0 -- -- 82
2019-09-13 11:00:00 14 0 Calma 4 Sur 0 -- -- 100
2019-09-13 10:00:00 11.2 3 Sur 5 Este 0 -- -- 100
2019-09-13 09:00:00 8.6 3 Este 5 Este 0 -- -- 100
2019-09-13 08:00:00 8.3 2 Noroeste 6 Este 0 -- -- 100
2019-09-13 07:00:00 8.4 0 Calma 6 Este 0 -- -- 100
2019-09-13 06:00:00 8.7 0 Calma 4 Sur 0 -- -- 100
2019-09-13 05:00:00 9.4 0 Calma 5 Sur 0 -- -- 100
2019-09-13 04:00:00 10.4 2 Este 4 Este 0 -- -- 99
2019-09-13 03:00:00 11.6 0 Calma 8 Este 0 -- -- 98
2019-09-13 02:00:00 12.8 0 Calma 9 Este 0 -- -- 96
2019-09-13 01:00:00 14.9 3 Sudeste 7 Sur 0 -- -- 93
2019-09-13 00:00:00 15.8 0 Calma 5 Sudeste 0 -- -- 95
2019-09-12 23:00:00 16.2 0 Calma 2 Sur 0 -- -- 98
2019-09-12 22:00:00 16.5 0 Calma 4 Este 0 -- -- 96
2019-09-12 21:00:00 16.8 0 Calma 6 Noroeste 0 -- -- 95
2019-09-12 20:00:00 18.5 4 Noroeste 14 Noroeste 0 -- -- 87
2019-09-12 19:00:00 20.7 5 Noroeste 17 Noroeste 0 -- -- 80
2019-09-12 18:00:00 22.5 5 Oeste 16 Noroeste 0 -- -- 75
2019-09-12 17:00:00 23.2 7 Noroeste 18 Noroeste 0 -- -- 74
2019-09-12 16:00:00 23.3 6 Noroeste 17 Norte 0 -- -- 73
2019-09-12 15:00:00 22.9 6 Noroeste 20 Noroeste 0 -- -- 71
2019-09-12 14:00:00 21.9 10 Noroeste 19 Noroeste 0 -- -- 73
2019-09-12 13:00:00 20.5 9 Noroeste 21 Noroeste 0 -- -- 74
2019-09-12 12:00:00 18.9 6 Este 18 Este 0 -- -- 75
2019-09-12 11:00:00 13.3 0 Calma 4 Noroeste 0 -- -- 100
2019-09-12 10:00:00 9.7 2 Este 5 Nordeste 0 -- -- 100
2019-09-12 09:00:00 6.6 3 Sudeste 6 Sur 0 -- -- 100
2019-09-12 08:00:00 6.1 3 Este 5 Este 0 -- -- 100
2019-09-12 07:00:00 6.2 0 Calma 4 Nordeste 0 -- -- 100
2019-09-12 06:00:00 6.6 0 Calma 5 Este 0 -- -- 100
2019-09-12 05:00:00 7 2 Este 5 Sur 0 -- -- 100
2019-09-12 04:00:00 7.7 3 Sudeste 4 Nordeste 0 -- -- 100
2019-09-12 03:00:00 8.4 0 Calma 5 Este 0 -- -- 100
2019-09-12 02:00:00 9.4 0 Calma 4 Este 0 -- -- 100
2019-09-12 01:00:00 10.3 3 Sur 5 Sur 0 -- -- 100
2019-09-12 00:00:00 11.3 0 Calma 3 Sudeste 0 -- -- 99
2019-09-11 23:00:00 12.5 0 Calma 2 Oeste 0 -- -- 98
2019-09-11 22:00:00 13.3 0 Calma 4 Oeste 0 -- -- 97
2019-09-11 21:00:00 14.1 2 Oeste 6 Oeste 0 -- -- 96
2019-09-11 20:00:00 15 0 Calma 11 Sudoeste 0 -- -- 93
2019-09-11 19:00:00 16.2 6 Sur 13 Sudeste 0 -- -- 84
2019-09-11 18:00:00 17.2 2 Sudoeste 17 Sudoeste 0 -- -- 82
2019-09-11 17:00:00 18.5 6 Noroeste 13 Oeste 0 -- -- 76
2019-09-11 16:00:00 16.8 6 Oeste 14 Oeste 0 -- -- 81
2019-09-11 15:00:00 16 6 Oeste 18 Oeste 0 -- -- 86
2019-09-11 14:00:00 15.9 5 Oeste 10 Oeste 0 -- -- 85
2019-09-11 13:00:00 14.7 5 Sudoeste 18 Oeste 0.2 -- -- 90
2019-09-11 12:00:00 14.6 4 Oeste 17 Oeste 0 -- -- 89
2019-09-11 11:00:00 14 4 Noroeste 9 Noroeste 0 -- -- 97
2019-09-11 10:00:00 12.9 3 Sudoeste 14 Sudoeste 0 -- -- 99
2019-09-11 09:00:00 11.7 2 Oeste 4 Oeste 0 -- -- 100
2019-09-11 08:00:00 11.6 3 Oeste 6 Este 0 -- -- 100
2019-09-11 07:00:00 11.9 4 Sudeste 13 Sur 0.2 -- -- 100
2019-09-11 06:00:00 12.1 0 Calma 15 Sudoeste 0 -- -- 99
2019-09-11 05:00:00 12.3 2 Oeste 8 Oeste 0 -- -- 99
2019-09-11 04:00:00 12.5 2 Oeste 14 Oeste 0 -- -- 98
2019-09-11 03:00:00 12.7 6 Sudoeste 13 Oeste 0 -- -- 96
2019-09-11 02:00:00 12.7 5 Sudoeste 23 Oeste 0 -- -- 96
2019-09-11 01:00:00 12.7 6 Sudoeste 19 Oeste 0.2 -- -- 96
2019-09-11 00:00:00 13.2 12 Sudoeste 32 Oeste 0 -- -- 90
2019-09-10 23:00:00 13.2 17 Oeste 43 Oeste 0 -- -- 92
2019-09-10 22:00:00 13.1 11 Oeste 39 Oeste 1 -- -- 94
2019-09-10 21:00:00 12.9 13 Sudoeste 32 Oeste 3.8 -- -- 96
2019-09-10 20:00:00 12.3 10 Oeste 30 Noroeste 1.6 -- -- 98
2019-09-10 19:00:00 12.7 14 Oeste 47 Oeste 3.2 -- -- 95
2019-09-10 18:00:00 13.3 24 Oeste 44 Oeste 0.4 -- -- 90
2019-09-10 17:00:00 12.8 19 Oeste 47 Oeste 8.2 -- -- 95
2019-09-10 16:00:00 12.5 19 Oeste 43 Oeste 12.2 -- -- 95
2019-09-10 15:00:00 12.6 14 Oeste 50 Oeste 7.8 -- -- 95
2019-09-10 14:00:00 12.5 20 Oeste 46 Noroeste 8.6 -- -- 94
2019-09-10 13:00:00 12.5 10 Oeste 46 Oeste 9 -- -- 95
2019-09-10 12:00:00 11 7 Oeste 18 Oeste 8.6 -- -- 100
2019-09-10 11:00:00 10.4 7 Sudoeste 19 Oeste 4.6 -- -- 99
2019-09-10 10:00:00 9.8 5 Oeste 16 Oeste 3.8 -- -- 99
2019-09-10 09:00:00 9.9 7 Oeste 28 Oeste 2.2 -- -- 97
2019-09-10 08:00:00 9.3 0 Calma 13 Sudoeste 1 -- -- 100
2019-09-10 07:00:00 8.9 3 Sudoeste 8 Oeste 0.2 -- -- 100
2019-09-10 06:00:00 9.3 3 Oeste 8 Noroeste 1.4 -- -- 100
2019-09-10 05:00:00 9.7 5 Oeste 17 Oeste 3.8 -- -- 97
2019-09-10 04:00:00 9.8 8 Sudoeste 20 Oeste 2.2 -- -- 99
2019-09-10 03:00:00 10.1 4 Oeste 9 Oeste 0.2 -- -- 98
2019-09-10 02:00:00 10.9 4 Oeste 18 Oeste 0.4 -- -- 97
2019-09-10 01:00:00 11.5 9 Oeste 23 Sudoeste 0.2 -- -- 95
2019-09-10 00:00:00 12.1 5 Oeste 33 Sudoeste 1 -- -- 95
2019-09-09 23:00:00 13.5 15 Oeste 44 Noroeste 1.2 -- -- 91
2019-09-09 22:00:00 13.9 2 Oeste 6 Noroeste 0 -- -- 95
2019-09-09 21:00:00 14.3 3 Sudoeste 14 Oeste 0 -- -- 92
2019-09-09 20:00:00 14.8 3 Sudoeste 7 Oeste 0 -- -- 89
2019-09-09 19:00:00 14.9 3 Oeste 11 Oeste 0 -- -- 88
2019-09-09 18:00:00 15.2 5 Oeste 14 Oeste 0 -- -- 85
2019-09-09 17:00:00 15.5 2 Noroeste 18 Oeste 0 -- -- 83
2019-09-09 16:00:00 15.6 11 Oeste 21 Oeste 0 -- -- 80
2019-09-09 15:00:00 17.3 3 Sudoeste 16 Este 0 -- -- 77
2019-09-09 14:00:00 17.9 3 Oeste 18 Sudoeste 0 -- -- 72
2019-09-09 13:00:00 17.6 2 Noroeste 11 Noroeste 0 -- -- 75
2019-09-09 12:00:00 15.5 4 Noroeste 9 Noroeste 0 -- -- 83
2019-09-09 11:00:00 13 0 Calma 4 Este 0 -- -- 95
2019-09-09 10:00:00 11.3 2 Este 4 Este 0 -- -- 100
2019-09-09 09:00:00 10.1 3 Este 5 Este 0 -- -- 100
2019-09-09 08:00:00 9.3 0 Calma 3 Nordeste 0 -- -- 100
2019-09-09 07:00:00 8.7 0 Calma 6 Sur 0 -- -- 100
2019-09-09 06:00:00 8.2 2 Sudeste 5 Este 0 -- -- 99
2019-09-09 05:00:00 9.1 3 Este 13 Sur 0 -- -- 97
2019-09-09 04:00:00 10.2 5 Sur 12 Sudeste 0 -- -- 97
2019-09-09 03:00:00 10.3 3 Sudeste 6 Sur 0 -- -- 99
2019-09-09 02:00:00 10.5 0 Calma 5 Este 0 -- -- 100
2019-09-09 01:00:00 10.3 0 Calma 4 Este 0 -- -- 100
2019-09-09 00:00:00 10.6 0 Calma 4 Este 0 -- -- 98
2019-09-08 23:00:00 11.9 0 Calma 2 Sudeste 0 -- -- 96
2019-09-08 22:00:00 12.8 3 Sudeste 5 Sudeste 0 -- -- 94
2019-09-08 21:00:00 14.3 0 Calma 5 Oeste 0 -- -- 89
2019-09-08 20:00:00 16.2 2 Oeste 6 Oeste 0 -- -- 86
2019-09-08 19:00:00 16.9 2 Sur 10 Este 0 -- -- 85
2019-09-08 18:00:00 17.8 4 Sudoeste 10 Este 0 -- -- 77
2019-09-08 17:00:00 18.6 3 Sudoeste 13 Este 0 -- -- 75
2019-09-08 16:00:00 19.1 4 Sur 18 Nordeste 0 -- -- 74
2019-09-08 15:00:00 19 5 Noroeste 12 Oeste 0 -- -- 67
2019-09-08 14:00:00 18 3 Oeste 9 Norte 0 -- -- 76
2019-09-08 13:00:00 16.4 3 Oeste 8 Norte 0 -- -- 85
2019-09-08 12:00:00 15.5 4 Norte 9 Oeste 0 -- -- 92
2019-09-08 11:00:00 14.5 3 Nordeste 5 Nordeste 0 -- -- 90
2019-09-08 10:00:00 11.9 3 Nordeste 5 Este 0 -- -- 100
2019-09-08 09:00:00 9.9 0 Calma 3 Sudeste 0 -- -- 99
2019-09-08 08:00:00 10.6 0 Calma 2 Sudeste 0 -- -- 100
2019-09-08 07:00:00 10.7 0 Calma 4 Sur 0 -- -- 100
2019-09-08 06:00:00 10.4 4 Sur 7 Este 0 -- -- 100
2019-09-08 05:00:00 9.8 0 Calma 2 Oeste 0 -- -- 100
2019-09-08 04:00:00 9.3 0 Calma 3 Sur 0 -- -- 100
2019-09-08 03:00:00 9.6 0 Calma 5 Este 0 -- -- 100
2019-09-08 02:00:00 9.9 0 Calma 4 Este 0 -- -- 99
2019-09-08 01:00:00 10.5 2 Este 4 Sudeste 0 -- -- 98
2019-09-08 00:00:00 11.4 0 Calma 2 Sur 0 -- -- 95
2019-09-07 23:00:00 13.5 0 Calma 2 Sur 0 -- -- 93
2019-09-07 22:00:00 14.1 0 Calma 8 Noroeste 0 -- -- 93
2019-09-07 21:00:00 14.6 0 Calma 12 Oeste 0 -- -- 90
2019-09-07 20:00:00 15.5 6 Oeste 18 Oeste 0 -- -- 84
2019-09-07 19:00:00 17.7 4 Oeste 13 Oeste 0 -- -- 81
2019-09-07 18:00:00 18 8 Oeste 20 Oeste 0 -- -- 76
2019-09-07 17:00:00 19 6 Oeste 16 Oeste 0 -- -- 68
2019-09-07 16:00:00 19.1 7 Oeste 15 Oeste 0 -- -- 67
2019-09-07 15:00:00 20 9 Oeste 19 Noroeste 0 -- -- 64
2019-09-07 14:00:00 19.4 4 Sur 12 Oeste 0 -- -- 65
2019-09-07 13:00:00 18 5 Sur 11 Oeste 0 -- -- 66
2019-09-07 12:00:00 15.3 3 Norte 8 Noroeste 0 -- -- 74
2019-09-07 11:00:00 11.6 2 Norte 4 Nordeste 0 -- -- 95
2019-09-07 10:00:00 9.1 0 Calma 4 Sur 0 -- -- 100
2019-09-07 09:00:00 7.6 0 Calma 3 Norte 0 -- -- 100
2019-09-07 08:00:00 6.7 0 Calma 2 Este 0 -- -- 100
2019-09-07 07:00:00 6 2 Este 4 Este 0 -- -- 100
2019-09-07 06:00:00 6.4 2 Sudeste 5 Este 0 -- -- 100
2019-09-07 05:00:00 7.2 2 Sudeste 4 Este 0 -- -- 100
2019-09-07 04:00:00 8.3 0 Calma 3 Este 0 -- -- 100
2019-09-07 03:00:00 8.6 0 Calma 4 Sur 0 -- -- 100
2019-09-07 02:00:00 8.9 0 Calma 4 Nordeste 0 -- -- 100
2019-09-07 01:00:00 9.3 0 Calma 3 Sur 0 -- -- 98
2019-09-07 00:00:00 10.4 0 Calma 2 Sur 0 -- -- 98
2019-09-06 23:00:00 10.6 0 Calma 3 Este 0 -- -- 98
2019-09-06 22:00:00 10.8 0 Calma 2 Nordeste 0 -- -- 93
2019-09-06 21:00:00 12.8 0 Calma 7 Sudeste 0 -- -- 89
2019-09-06 20:00:00 14.6 6 Sur 17 Sudeste 0 -- -- 81
2019-09-06 19:00:00 15.5 9 Sur 34 Este 0 -- -- 73
2019-09-06 18:00:00 15.5 5 Sudoeste 16 Noroeste 0 -- -- 79
2019-09-06 17:00:00 16.2 7 Noroeste 17 Oeste 0 -- -- 80
2019-09-06 16:00:00 15.7 2 Sur 15 Oeste 0 -- -- 82
2019-09-06 15:00:00 16.2 4 Noroeste 14 Noroeste 0 -- -- 83
2019-09-06 14:00:00 15.2 10 Oeste 18 Oeste 0 -- -- 83
2019-09-06 13:00:00 14.7 2 Sur 8 Oeste 0 -- -- 91
2019-09-06 12:00:00 14.7 3 Oeste 8 Noroeste 0 -- -- 90
2019-09-06 11:00:00 12.3 2 Este 5 Nordeste 0 -- -- 100
2019-09-06 10:00:00 10.8 0 Calma 4 Nordeste 0 -- -- 100
2019-09-06 09:00:00 10.4 3 Este 6 Este 0 -- -- 100
2019-09-06 08:00:00 10.3 2 Sudoeste 3 Sur 0 -- -- 100
2019-09-06 07:00:00 10.8 2 Sudoeste 6 Oeste 0 -- -- 100
2019-09-06 06:00:00 11.7 2 Oeste 4 Nordeste 0 -- -- 100
2019-09-06 05:00:00 11.8 2 Oeste 6 Oeste 0.2 -- -- 100
2019-09-06 04:00:00 11.8 3 Oeste 6 Oeste 0 -- -- 100
2019-09-06 03:00:00 11.9 2 Sudoeste 5 Oeste 0 -- -- 100
2019-09-06 02:00:00 12.3 0 Calma 3 Sur 0 -- -- 100
2019-09-06 01:00:00 12.4 0 Calma 5 Norte 0 -- -- 100
2019-09-06 00:00:00 12.5 0 Calma 5 Noroeste 0 -- -- 100
2019-09-05 23:00:00 12.8 3 Noroeste 6 Oeste 0.6 -- -- 100
2019-09-05 22:00:00 12.9 3 Oeste 5 Sudoeste 0.6 -- -- 100
2019-09-05 21:00:00 13.3 3 Sur 6 Sudeste 0.8 -- -- 99
2019-09-05 20:00:00 13.7 2 Oeste 18 Sudoeste 0 -- -- 98
2019-09-05 19:00:00 13.9 4 Sudoeste 17 Oeste 1.8 -- -- 95
2019-09-05 18:00:00 14.4 9 Oeste 22 Sudoeste 0.8 -- -- 93
2019-09-05 17:00:00 14.5 5 Oeste 12 Oeste 1.6 -- -- 94
2019-09-05 16:00:00 16 4 Noroeste 17 Oeste 0 -- -- 81
2019-09-05 15:00:00 15.4 7 Oeste 32 Oeste 0 -- -- 85
2019-09-05 14:00:00 16.1 8 Noroeste 22 Noroeste 0 -- -- 77
2019-09-05 13:00:00 16 6 Noroeste 17 Norte 0 -- -- 81
2019-09-05 12:00:00 14.9 6 Oeste 13 Noroeste 0 -- -- 85
2019-09-05 11:00:00 14.9 4 Noroeste 10 Noroeste 0 -- -- 92
2019-09-05 10:00:00 13.3 4 Oeste 11 Oeste 0 -- -- 99
2019-09-05 09:00:00 12.3 5 Oeste 10 Sudoeste 1.4 -- -- 100
2019-09-05 08:00:00 12.2 0 Calma 29 Oeste 0.2 -- -- 97
2019-09-05 07:00:00 12.8 6 Oeste 31 Oeste 0.2 -- -- 95
2019-09-05 06:00:00 12.7 9 Oeste 21 Oeste 0.4 -- -- 99
2019-09-05 05:00:00 13 5 Sudoeste 24 Oeste 0.4 -- -- 97
2019-09-05 04:00:00 13.6 5 Oeste 19 Oeste 0.8 -- -- 98
2019-09-05 03:00:00 13.9 7 Oeste 16 Sudoeste 0.4 -- -- 98
2019-09-05 02:00:00 14.3 3 Oeste 11 Oeste 0 -- -- 97
2019-09-05 01:00:00 14.2 3 Oeste 9 Noroeste 0 -- -- 97
2019-09-05 00:00:00 13.9 3 Noroeste 5 Noroeste 0 -- -- 96
2019-09-04 23:00:00 15 0 Calma 12 Oeste 0 -- -- 92
2019-09-04 22:00:00 15.4 5 Oeste 14 Oeste 0 -- -- 90
2019-09-04 21:00:00 16 6 Oeste 21 Oeste 0 -- -- 86
2019-09-04 20:00:00 16.8 8 Oeste 19 Oeste 0 -- -- 83
2019-09-04 19:00:00 17.5 11 Oeste 21 Oeste 0 -- -- 81
2019-09-04 18:00:00 17.9 10 Oeste 28 Oeste 0 -- -- 81
2019-09-04 17:00:00 18.6 15 Oeste 26 Oeste 0 -- -- 77
2019-09-04 16:00:00 20.2 13 Oeste 25 Oeste 0 -- -- 70
2019-09-04 15:00:00 21.2 6 Oeste 20 Oeste 0 -- -- 63
2019-09-04 14:00:00 21.5 6 Noroeste 15 Oeste 0 -- -- 68
2019-09-04 13:00:00 20.1 7 Oeste 17 Norte 0 -- -- 71
2019-09-04 12:00:00 18.9 7 Oeste 14 Noroeste 0 -- -- 70
2019-09-04 11:00:00 14 0 Calma 4 Oeste 0 -- -- 100
2019-09-04 10:00:00 10.6 0 Calma 4 Este 0 -- -- 100
2019-09-04 09:00:00 7.5 3 Este 4 Sudeste 0 -- -- 100
2019-09-04 08:00:00 6.6 2 Sudeste 4 Este 0 -- -- 100
2019-09-04 07:00:00 6.6 0 Calma 4 Este 0 -- -- 100
2019-09-04 06:00:00 6.8 0 Calma 3 Este 0 -- -- 100
2019-09-04 05:00:00 7.3 0 Calma 3 Este 0 -- -- 100
2019-09-04 04:00:00 7.9 0 Calma 3 Este 0 -- -- 100
2019-09-04 03:00:00 8.6 0 Calma 4 Este 0 -- -- 99
2019-09-04 02:00:00 9.3 0 Calma 4 Nordeste 0 -- -- 100
2019-09-04 01:00:00 10.1 0 Calma 3 Nordeste 0 -- -- 98
2019-09-04 00:00:00 11.1 2 Sudeste 4 Este 0 -- -- 97
2019-09-03 23:00:00 12.1 0 Calma 3 Nordeste 0 -- -- 96
2019-09-03 22:00:00 13.6 0 Calma 3 Sudeste 0 -- -- 91
2019-09-03 21:00:00 15.7 0 Calma 5 Sur 0 -- -- 87
2019-09-03 20:00:00 18 3 Sudoeste 11 Oeste 0 -- -- 83
2019-09-03 19:00:00 22.1 4 Oeste 13 Noroeste 0 -- -- 67
2019-09-03 18:00:00 23.4 6 Noroeste 17 Oeste 0 -- -- 63
2019-09-03 17:00:00 23.7 8 Oeste 18 Noroeste 0 -- -- 59
2019-09-03 16:00:00 23.8 8 Oeste 20 Noroeste 0 -- -- 56
2019-09-03 15:00:00 23.8 6 Noroeste 18 Norte 0 -- -- 63
2019-09-03 14:00:00 23.2 8 Noroeste 19 Noroeste 0 -- -- 58
2019-09-03 13:00:00 22.2 4 Sudeste 21 Este 0 -- -- 51
2019-09-03 12:00:00 19.5 8 Este 24 Este 0 -- -- 61
2019-09-03 11:00:00 13.8 3 Oeste 8 Noroeste 0 -- -- 100
2019-09-03 10:00:00 9.9 3 Noroeste 5 Noroeste 0 -- -- 100
2019-09-03 09:00:00 6.3 0 Calma 3 Sudoeste 0 -- -- 100
2019-09-03 08:00:00 5.6 2 Este 4 Nordeste 0 -- -- 100
2019-09-03 07:00:00 5.6 0 Calma 4 Noroeste 0 -- -- 100
2019-09-03 06:00:00 6.2 2 Sudeste 5 Este 0 -- -- 100
2019-09-03 05:00:00 6.4 0 Calma 5 Este 0 -- -- 100
2019-09-03 04:00:00 7.2 0 Calma 4 Este 0 -- -- 100
2019-09-03 03:00:00 7.8 2 Sudeste 4 Sur 0 -- -- 100
2019-09-03 02:00:00 8.4 0 Calma 4 Este 0 -- -- 100
2019-09-03 01:00:00 9.2 0 Calma 3 Este 0 -- -- 98
2019-09-03 00:00:00 10.2 0 Calma 3 Este 0 -- -- 98
2019-09-02 23:00:00 11.3 2 Sudeste 3 Sur 0 -- -- 96
2019-09-02 22:00:00 12.8 0 Calma 5 Este 0 -- -- 94
2019-09-02 21:00:00 14.7 0 Calma 9 Este 0 -- -- 91
2019-09-02 20:00:00 17.4 3 Este 17 Nordeste 0 -- -- 77
2019-09-02 19:00:00 18.3 4 Sur 19 Este 0 -- -- 75
2019-09-02 18:00:00 19 4 Sur 23 Nordeste 0 -- -- 64
2019-09-02 17:00:00 19.4 4 Sudeste 20 Este 0 -- -- 66
2019-09-02 16:00:00 19.2 6 Sudeste 19 Este 0 -- -- 62
2019-09-02 15:00:00 18.7 7 Sudeste 18 Este 0 -- -- 70
2019-09-02 14:00:00 18 4 Sudeste 8 Este 0 -- -- 75
2019-09-02 13:00:00 17.2 3 Noroeste 8 Sur 0 -- -- 72
2019-09-02 12:00:00 15.9 2 Sudeste 9 Norte 0 -- -- 84
2019-09-02 11:00:00 15.2 4 Norte 11 Noroeste 0 -- -- 86
2019-09-02 10:00:00 13.9 3 Noroeste 6 Noroeste 0 -- -- 100
2019-09-02 09:00:00 12.8 2 Oeste 5 Oeste 0 -- -- 100
2019-09-02 08:00:00 12.5 0 Calma 5 Oeste 0 -- -- 100
2019-09-02 07:00:00 12.5 0 Calma 6 Oeste 0.4 -- -- 100
2019-09-02 06:00:00 12.6 3 Oeste 7 Noroeste 0.4 -- -- 100
2019-09-02 05:00:00 12.6 2 Noroeste 4 Oeste 0.4 -- -- 100
2019-09-02 04:00:00 12.6 0 Calma 4 Sudoeste 0 -- -- 100
2019-09-02 03:00:00 12.5 3 Oeste 7 Noroeste 0 -- -- 100
2019-09-02 02:00:00 12.5 2 Oeste 6 Oeste 0.6 -- -- 100
2019-09-02 01:00:00 12.6 4 Oeste 8 Oeste 0.4 -- -- 100
2019-09-02 00:00:00 12.9 0 Calma 2 Oeste 0.4 -- -- 100
2019-09-01 23:00:00 13 0 Calma 4 Este 0 -- -- 100
2019-09-01 22:00:00 13 0 Calma 13 Sudoeste 0 -- -- 100
2019-09-01 21:00:00 13.1 10 Oeste 29 Oeste 0.2 -- -- 95
2019-09-01 20:00:00 14.6 6 Oeste 27 Oeste 0.6 -- -- 98
2019-09-01 19:00:00 15.3 8 Oeste 24 Oeste 0.2 -- -- 98
2019-09-01 18:00:00 16 12 Oeste 24 Oeste 1.2 -- -- 96
2019-09-01 17:00:00 16.7 8 Oeste 17 Oeste 2.4 -- -- 97
2019-09-01 16:00:00 17.2 9 Oeste 26 Oeste 0.6 -- -- 94
2019-09-01 15:00:00 19.2 4 Noroeste 15 Oeste 0.2 -- -- 92
2019-09-01 14:00:00 17.7 3 Oeste 9 Oeste 0 -- -- 93
2019-09-01 13:00:00 17.2 4 Sudoeste 12 Oeste 0 -- -- 96
2019-09-01 12:00:00 16.9 3 Sudoeste 10 Oeste 0 -- -- 99
2019-09-01 11:00:00 16.4 3 Sudoeste 8 Oeste 0.4 -- -- 100
2019-09-01 10:00:00 16.1 0 Calma 0 Calma 0.2 -- -- 100
2019-09-01 09:00:00 16 0 Calma -- -- 0.8 -- -- 100
2019-09-01 08:00:00 15.9 0 Calma 0 Calma 0.6 -- -- 100
2019-09-01 07:00:00 15.9 0 Calma -- -- 0.2 -- -- 100
2019-09-01 06:00:00 16 0 Calma -- -- 0 -- -- 100
2019-09-01 05:00:00 16 0 Calma -- -- 0 -- -- 100
2019-09-01 04:00:00 16.1 0 Calma -- -- 0 -- -- 100
2019-09-01 03:00:00 16.1 0 Calma 2 Sur 0 -- -- 100
2019-09-01 02:00:00 16.4 0 Calma 4 Este 0 -- -- 100
2019-09-01 01:00:00 16.6 0 Calma 6 Norte 0.2 -- -- 100
2019-09-01 00:00:00 16.7 3 Oeste 8 Oeste 0 -- -- 100
2019-08-31 23:00:00 17.2 0 Calma 5 Norte 0 -- -- 100
2019-08-31 22:00:00 17.4 0 Calma 8 Oeste 0.2 -- -- 99
2019-08-31 21:00:00 17.8 3 Oeste 14 Sur 0 -- -- 99
2019-08-31 20:00:00 18.3 3 Sudoeste 7 Oeste 0.2 -- -- 98
2019-08-31 19:00:00 18.7 5 Sudoeste 12 Oeste 0 -- -- 95
2019-08-31 18:00:00 19 3 Noroeste 9 Sudoeste 0 -- -- 95
2019-08-31 17:00:00 18.7 5 Sudoeste 18 Sudoeste 0 -- -- 94
2019-08-31 16:00:00 20.3 8 Noroeste 14 Oeste 0 -- -- 87
2019-08-31 15:00:00 21.1 5 Oeste 10 Oeste 0 -- -- 84
2019-08-31 14:00:00 20.9 0 Calma 5 Nordeste 0 -- -- 82
2019-08-31 13:00:00 19.8 2 Sudoeste 5 Norte 0 -- -- 86
2019-08-31 12:00:00 18.5 4 Noroeste 12 Noroeste 0 -- -- 95
2019-08-31 11:00:00 17.2 0 Calma 6 Nordeste 0 -- -- 100
2019-08-31 10:00:00 15.2 0 Calma 4 Sur 0 -- -- 100
2019-08-31 09:00:00 13 0 Calma 6 Este 0 -- -- 100
2019-08-31 08:00:00 11.7 0 Calma 5 Este 0 -- -- 100
2019-08-31 07:00:00 12.2 3 Sudeste 5 Este 0 -- -- 100
2019-08-31 06:00:00 12.8 0 Calma 5 Este 0 -- -- 99
2019-08-31 05:00:00 13.5 0 Calma 5 Este 0 -- -- 99
2019-08-31 04:00:00 13.7 0 Calma 3 Nordeste 0 -- -- 98
2019-08-31 03:00:00 14.8 2 Sudeste 8 Este 0 -- -- 97
2019-08-31 02:00:00 15.7 2 Sudeste 8 Sur 0 -- -- 96
2019-08-31 01:00:00 16.1 4 Sur 9 Este 0 -- -- 97
2019-08-31 00:00:00 16.9 0 Calma 6 Este 0 -- -- 96
2019-08-30 23:00:00 18.8 0 Calma 8 Noroeste 0 -- -- 96
2019-08-30 22:00:00 19.4 3 Noroeste 5 Norte 0 -- -- 98
2019-08-30 21:00:00 19.6 0 Calma 5 Oeste 0 -- -- 96
2019-08-30 20:00:00 19.9 3 Noroeste 9 Noroeste 0 -- -- 96
2019-08-30 19:00:00 20.4 5 Noroeste 12 Noroeste 0 -- -- 94
2019-08-30 18:00:00 21.5 7 Noroeste 17 Noroeste 0 -- -- 89
2019-08-30 17:00:00 23.5 7 Noroeste 23 Noroeste 0 -- -- 83
2019-08-30 16:00:00 26.6 11 Noroeste 23 Noroeste 0 -- -- 74
2019-08-30 15:00:00 26 10 Noroeste 21 Noroeste 0 -- -- 74
2019-08-30 14:00:00 25.6 8 Noroeste 22 Noroeste 0 -- -- 77
2019-08-30 13:00:00 24.3 8 Noroeste 14 Oeste 0 -- -- 76
2019-08-30 12:00:00 21.9 3 Este 9 Noroeste 0 -- -- 83
2019-08-30 11:00:00 19.6 3 Nordeste 7 Sur 0 -- -- 88
2019-08-30 10:00:00 17.9 3 Este 11 Nordeste 0 -- -- 97
2019-08-30 09:00:00 17.1 2 Sur 5 Este 0 -- -- 100
2019-08-30 08:00:00 16.8 0 Calma 4 Este 0 -- -- 100
2019-08-30 07:00:00 17.2 3 Oeste 5 Oeste 0 -- -- 100
2019-08-30 06:00:00 17.4 0 Calma 5 Noroeste 0 -- -- 100
2019-08-30 05:00:00 17.5 0 Calma 3 Noroeste 0 -- -- 100
2019-08-30 04:00:00 17.5 0 Calma 3 Oeste 0 -- -- 100
2019-08-30 03:00:00 17.6 0 Calma 3 Oeste 0 -- -- 100
2019-08-30 02:00:00 17.8 0 Calma 6 Noroeste 0 -- -- 100
2019-08-30 01:00:00 18 0 Calma 4 Oeste 0 -- -- 100
2019-08-30 00:00:00 18.1 2 Oeste 6 Oeste 0 -- -- 100
2019-08-29 23:00:00 18.4 2 Noroeste 5 Noroeste 0 -- -- 100
2019-08-29 22:00:00 18.6 0 Calma 3 Noroeste 0 -- -- 99
2019-08-29 21:00:00 18.7 0 Calma 8 Noroeste 0.2 -- -- 99
2019-08-29 20:00:00 19.2 4 Noroeste 8 Noroeste 0 -- -- 97
2019-08-29 19:00:00 19.5 3 Oeste 9 Oeste 0.2 -- -- 97
2019-08-29 18:00:00 19.8 4 Oeste 8 Sudoeste 0.2 -- -- 95
2019-08-29 17:00:00 20.2 3 Noroeste 13 Oeste 0 -- -- 93
2019-08-29 16:00:00 20.5 6 Noroeste 16 Norte 0 -- -- 90
2019-08-29 15:00:00 21.6 2 Oeste 10 Noroeste 0 -- -- 86
2019-08-29 14:00:00 21.6 3 Noroeste 13 Noroeste 0 -- -- 85
2019-08-29 13:00:00 22.6 6 Noroeste 13 Noroeste 0 -- -- 79
2019-08-29 12:00:00 21.7 8 Noroeste 13 Norte 0 -- -- 82
2019-08-29 11:00:00 19.1 0 Calma 6 Este 0 -- -- 94
2019-08-29 10:00:00 17.6 3 Noroeste 6 Noroeste 0 -- -- 100
2019-08-29 09:00:00 16.9 0 Calma 4 Noroeste 0 -- -- 100
2019-08-29 08:00:00 16.6 0 Calma 3 Norte 0 -- -- 100
2019-08-29 07:00:00 16.7 0 Calma 3 Sudoeste 0 -- -- 100
2019-08-29 06:00:00 16.9 0 Calma 3 Este 0 -- -- 99
2019-08-29 05:00:00 17.4 0 Calma 2 Este 0 -- -- 100
2019-08-29 04:00:00 17.5 0 Calma 3 Sur 0 -- -- 100
2019-08-29 03:00:00 17.6 0 Calma 3 Sudoeste 0 -- -- 99
2019-08-29 02:00:00 17.8 0 Calma 2 Norte 0 -- -- 99
2019-08-29 01:00:00 18 0 Calma 2 Sur 0 -- -- 99
2019-08-29 00:00:00 18.1 0 Calma 2 Este 0 -- -- 98
2019-08-28 23:00:00 18.2 0 Calma 3 Sudoeste 0.2 -- -- 98
2019-08-28 22:00:00 18.4 0 Calma 5 Norte 0 -- -- 97
2019-08-28 21:00:00 18.8 2 Oeste 7 Noroeste 0 -- -- 96
2019-08-28 20:00:00 19.7 0 Calma 6 Sudoeste 0 -- -- 94
2019-08-28 19:00:00 20.1 3 Noroeste 5 Oeste 0 -- -- 92
2019-08-28 18:00:00 20.5 3 Noroeste 10 Oeste 0 -- -- 89
2019-08-28 17:00:00 20.9 2 Oeste 8 Oeste 0 -- -- 87
2019-08-28 16:00:00 21.4 4 Oeste 10 Oeste 0 -- -- 82
2019-08-28 15:00:00 22.2 6 Noroeste 15 Noroeste 0 -- -- 78
2019-08-28 14:00:00 23.1 5 Noroeste 12 Noroeste 0 -- -- 78
2019-08-28 13:00:00 20.7 3 Oeste 7 Noroeste 0 -- -- 82
2019-08-28 12:00:00 19.3 3 Noroeste 6 Oeste 0 -- -- 85
2019-08-28 11:00:00 17.9 3 Nordeste 5 Nordeste 0 -- -- 92
2019-08-28 10:00:00 16.9 2 Este 8 Este 0 -- -- 94
2019-08-28 09:00:00 16.3 4 Este 8 Este 0 -- -- 95
2019-08-28 08:00:00 16.4 0 Calma 5 Este 0 -- -- 96
2019-08-28 07:00:00 16.6 3 Este 6 Nordeste 0 -- -- 97
2019-08-28 06:00:00 16.7 3 Sur 7 Este 0 -- -- 97
2019-08-28 05:00:00 16.9 3 Sur 4 Sudeste 0 -- -- 97
2019-08-28 04:00:00 17 3 Sur 8 Nordeste 0 -- -- 97
2019-08-28 03:00:00 17.5 0 Calma 2 Nordeste 0 -- -- 98
2019-08-28 02:00:00 17.8 0 Calma 3 Noroeste 0 -- -- 99
2019-08-28 01:00:00 17.8 2 Noroeste 7 Noroeste 0 -- -- 99
2019-08-28 00:00:00 18 3 Noroeste 6 Noroeste 0 -- -- 98
2019-08-27 23:00:00 18.2 0 Calma 8 Noroeste 0 -- -- 96
2019-08-27 22:00:00 18.7 4 Noroeste 7 Noroeste 0 -- -- 95
2019-08-27 21:00:00 19.1 0 Calma 8 Noroeste 0 -- -- 93
2019-08-27 20:00:00 19.6 5 Noroeste 14 Noroeste 0 -- -- 90
2019-08-27 19:00:00 20.5 5 Oeste 20 Oeste 0 -- -- 87
2019-08-27 18:00:00 21.2 10 Oeste 20 Oeste 0 -- -- 83
2019-08-27 17:00:00 22.4 5 Sudoeste 14 Oeste 0 -- -- 77
2019-08-27 16:00:00 22.8 5 Noroeste 15 Oeste 0 -- -- 77
2019-08-27 15:00:00 22.8 3 Sur 14 Oeste 0 -- -- 73
2019-08-27 14:00:00 22.4 10 Oeste 24 Noroeste 0 -- -- 78
2019-08-27 13:00:00 22.8 7 Oeste 15 Norte 0 -- -- 72
2019-08-27 12:00:00 20.8 3 Sur 8 Nordeste 0 -- -- 85
2019-08-27 11:00:00 17.7 3 Este 6 Este 0 -- -- 97
2019-08-27 10:00:00 14.9 0 Calma 5 Este 0 -- -- 100
2019-08-27 09:00:00 12.9 0 Calma 4 Este 0 -- -- 100
2019-08-27 08:00:00 12.5 2 Sur 8 Sur 0 -- -- 100
2019-08-27 07:00:00 11.9 0 Calma 3 Este 0 -- -- 100
2019-08-27 06:00:00 12.5 2 Norte 5 Nordeste 0 -- -- 100
2019-08-27 05:00:00 12.4 0 Calma 8 Sur 0 -- -- 100
2019-08-27 04:00:00 12.2 4 Sudeste 7 Sur 0 -- -- 100
2019-08-27 03:00:00 12.5 0 Calma 4 Nordeste 0 -- -- 100
2019-08-27 02:00:00 13 2 Sudeste 5 Este 0 -- -- 100
2019-08-27 01:00:00 13.8 0 Calma 6 Este 0 -- -- 100
2019-08-27 00:00:00 14.3 2 Oeste 8 Sur 0 -- -- 100
2019-08-26 23:00:00 15.1 3 Sudoeste 4 Sudoeste 0 -- -- 99
2019-08-26 22:00:00 15.9 0 Calma 5 Oeste 0 -- -- 98
2019-08-26 21:00:00 17.3 3 Sur 8 Sur 0 -- -- 96
2019-08-26 20:00:00 18.8 3 Norte 8 Noroeste 0 -- -- 96
2019-08-26 19:00:00 18.4 4 Sur 7 Sudoeste 0 -- -- 96
2019-08-26 18:00:00 19.8 5 Oeste 17 Noroeste 5.2 -- -- 88
2019-08-26 17:00:00 23.7 3 Nordeste 24 Noroeste 0 -- -- 75
2019-08-26 16:00:00 25.8 9 Noroeste 18 Noroeste 0 -- -- 72
2019-08-26 15:00:00 24.3 7 Noroeste 12 Noroeste 0 -- -- 73
2019-08-26 14:00:00 23.2 4 Norte 16 Noroeste 0 -- -- 75
2019-08-26 13:00:00 21.7 7 Noroeste 14 Noroeste 0 -- -- 85
2019-08-26 12:00:00 19.5 5 Noroeste 14 Noroeste 0 -- -- 91
2019-08-26 11:00:00 17.2 4 Sudoeste 10 Oeste 0 -- -- 100
2019-08-26 10:00:00 15.2 0 Calma 4 Nordeste 0 -- -- 100
2019-08-26 09:00:00 13.6 0 Calma 5 Sur 0 -- -- 100
2019-08-26 08:00:00 12.8 0 Calma 4 Sur 0 -- -- 100
2019-08-26 07:00:00 13 3 Sudeste 6 Este 0 -- -- 100
2019-08-26 06:00:00 13.5 2 Oeste 4 Sur 0 -- -- 100
2019-08-26 05:00:00 13.8 0 Calma 3 Sudeste 0 -- -- 100
2019-08-26 04:00:00 14.5 0 Calma 3 Sur 0 -- -- 100
2019-08-26 03:00:00 15.1 0 Calma 3 Este 0.2 -- -- 100
2019-08-26 02:00:00 15.6 3 Oeste 8 Sur 0 -- -- 100
2019-08-26 01:00:00 15.6 3 Oeste 8 Sur 0 -- -- 100
2019-08-26 00:00:00 15.9 4 Sudeste 8 Sur 0.4 -- -- 100
2019-08-25 23:00:00 16 3 Nordeste 6 Noroeste 0.2 -- -- 100
2019-08-25 22:00:00 16.3 5 Sur 10 Este 2.2 -- -- 100
2019-08-25 21:00:00 16.5 4 Sudoeste 9 Sudoeste 1.2 -- -- 99
2019-08-25 20:00:00 17 2 Oeste 18 Noroeste 7.4 -- -- 98
2019-08-25 19:00:00 17.9 4 Sur 8 Noroeste 0 -- -- 93
2019-08-25 18:00:00 18.6 2 Norte 13 Noroeste 0 -- -- 88
2019-08-25 17:00:00 19.5 4 Noroeste 15 Noroeste 0 -- -- 86
2019-08-25 16:00:00 20 3 Oeste 8 Oeste 0 -- -- 84
2019-08-25 15:00:00 19.8 5 Norte 19 Oeste 0 -- -- 82
2019-08-25 14:00:00 21.6 6 Noroeste 15 Norte 0 -- -- 77
2019-08-25 13:00:00 20 5 Noroeste 16 Noroeste 0 -- -- 80
2019-08-25 12:00:00 19.6 5 Noroeste 11 Norte 0 -- -- 80
2019-08-25 11:00:00 16.7 4 Este 8 Nordeste 0 -- -- 91
2019-08-25 10:00:00 14.7 2 Este 5 Este 0 -- -- 97
2019-08-25 09:00:00 13.8 2 Norte 5 Este 0 -- -- 98
2019-08-25 08:00:00 13.2 0 Calma 6 Sur 0 -- -- 98
2019-08-25 07:00:00 12.9 3 Sudeste 5 Sudeste 0 -- -- 98
2019-08-25 06:00:00 12.9 2 Sudeste 5 Este 0 -- -- 98
2019-08-25 05:00:00 13 3 Este 6 Este 0 -- -- 98
2019-08-25 04:00:00 12.8 3 Este 6 Este 0 -- -- 97
2019-08-25 03:00:00 13 0 Calma 6 Este 0 -- -- 98
2019-08-25 02:00:00 12.7 4 Este 6 Sudeste 0 -- -- 99
2019-08-25 01:00:00 12.9 0 Calma 0 Calma 0 -- -- 97
2019-08-25 00:00:00 13.9 0 Calma -- -- 0 -- -- 96
2019-08-24 23:00:00 15 0 Calma 0 Calma 0 -- -- 95
2019-08-24 22:00:00 16.4 0 Calma 3 Sudeste 0 -- -- 95
2019-08-24 21:00:00 17.4 0 Calma 4 Noroeste 0 -- -- 94
2019-08-24 20:00:00 18.4 3 Sur 10 Oeste 0 -- -- 94
2019-08-24 19:00:00 18.7 3 Noroeste 12 Noroeste 0 -- -- 91
2019-08-24 18:00:00 19.7 4 Noroeste 19 Noroeste 0 -- -- 88
2019-08-24 17:00:00 22.1 8 Noroeste 23 Noroeste 0 -- -- 79
2019-08-24 16:00:00 24.6 9 Noroeste 24 Noroeste 0 -- -- 73
2019-08-24 15:00:00 25.5 12 Noroeste 23 Noroeste 0 -- -- 74
2019-08-24 14:00:00 25.9 12 Noroeste 21 Noroeste 0 -- -- 68
2019-08-24 13:00:00 25.2 9 Noroeste 16 Noroeste 0 -- -- 67
2019-08-24 12:00:00 23.2 5 Noroeste 16 Noroeste 0 -- -- 67
2019-08-24 11:00:00 19.9 5 Noroeste 17 Noroeste 0 -- -- 74
2019-08-24 10:00:00 16.9 2 Este 5 Este 0 -- -- 95
2019-08-24 09:00:00 12.8 0 Calma 6 Este 0 -- -- 100
2019-08-24 08:00:00 10.5 0 Calma 5 Nordeste 0 -- -- 99
2019-08-24 07:00:00 10.2 0 Calma 0 Calma 0 -- -- 99
2019-08-24 06:00:00 10.4 0 Calma -- -- 0 -- -- 98
2019-08-24 05:00:00 10.7 0 Calma 3 Nordeste 0 -- -- 97
2019-08-24 04:00:00 11.1 0 Calma 4 Este 0 -- -- 97
2019-08-24 03:00:00 11.5 2 Este 5 Nordeste 0 -- -- 96
2019-08-24 02:00:00 12.3 0 Calma 4 Este 0 -- -- 95
2019-08-24 01:00:00 13.2 0 Calma 5 Nordeste 0 -- -- 94
2019-08-24 00:00:00 14.2 0 Calma 4 Este 0 -- -- 91
2019-08-23 23:00:00 15.7 0 Calma 0 Calma 0 -- -- 89
2019-08-23 22:00:00 18.1 0 Calma 4 Sudeste 0 -- -- 82
2019-08-23 21:00:00 20.9 2 Sudeste 4 Sur 0 -- -- 76
2019-08-23 20:00:00 24.1 0 Calma 4 Sur 0 -- -- 66
2019-08-23 19:00:00 26.5 3 Sudoeste 14 Sudoeste 0 -- -- 57
2019-08-23 18:00:00 29.3 8 Sudoeste 22 Sudoeste 0 -- -- 36
2019-08-23 17:00:00 30.1 7 Sudoeste 21 Oeste 0 -- -- 41
2019-08-23 16:00:00 30.8 11 Sudoeste 22 Oeste 0 -- -- 28
2019-08-23 15:00:00 31.1 8 Oeste 17 Oeste 0 -- -- 36
2019-08-23 14:00:00 30.1 3 Sudoeste 9 Oeste 0 -- -- 42
2019-08-23 13:00:00 27.8 4 Noroeste 10 Noroeste 0 -- -- 55
2019-08-23 12:00:00 23 2 Sur 3 Sur 0 -- -- 78
2019-08-23 11:00:00 16.5 0 Calma 3 Este 0 -- -- 97
2019-08-23 10:00:00 11.2 0 Calma 5 Este 0 -- -- 100
2019-08-23 09:00:00 7.2 2 Este 4 Este 0 -- -- 100
2019-08-23 08:00:00 5.5 2 Sudeste 4 Sudeste 0 -- -- 99
2019-08-23 07:00:00 5.9 0 Calma 4 Este 0 -- -- 98
2019-08-23 06:00:00 6.6 0 Calma 4 Este 0 -- -- 98
2019-08-23 05:00:00 7.3 2 Este 4 Este 0 -- -- 97
2019-08-23 04:00:00 8.2 0 Calma 4 Este 0 -- -- 97
2019-08-23 03:00:00 9.1 0 Calma 3 Este 0 -- -- 96
2019-08-23 02:00:00 10.4 2 Este 4 Este 0 -- -- 96
2019-08-23 01:00:00 11.8 0 Calma 4 Sudeste 0 -- -- 97
2019-08-23 00:00:00 13.1 2 Este 4 Este 0 -- -- 96
2019-08-22 23:00:00 14.5 0 Calma 0 Calma 0 -- -- 93
2019-08-22 22:00:00 16.4 0 Calma 3 Sur 0 -- -- 89
2019-08-22 21:00:00 18.9 0 Calma 6 Sudoeste 0 -- -- 85
2019-08-22 20:00:00 22 3 Sudoeste 10 Noroeste 0 -- -- 76
2019-08-22 19:00:00 24.9 4 Oeste 18 Oeste 0 -- -- 66
2019-08-22 18:00:00 26.4 5 Noroeste 16 Noroeste 0 -- -- 60
2019-08-22 17:00:00 26.7 4 Sur 16 Este 0 -- -- 53
2019-08-22 16:00:00 26.6 3 Sur 13 Este 0 -- -- 49
2019-08-22 15:00:00 26.1 3 Norte 10 Este 0 -- -- 48
2019-08-22 14:00:00 25.5 5 Oeste 12 Oeste 0 -- -- 50
2019-08-22 13:00:00 23.6 3 Norte 8 Noroeste 0 -- -- 49
2019-08-22 12:00:00 19.9 0 Calma 4 Noroeste 0 -- -- 70
2019-08-22 11:00:00 14.8 0 Calma 0 Calma 0 -- -- 93
2019-08-22 10:00:00 10.7 0 Calma 0 Calma 0 -- -- 100
2019-08-22 09:00:00 7.9 0 Calma -- -- 0 -- -- 100
2019-08-22 08:00:00 6.7 0 Calma -- -- 0 -- -- 100
2019-08-22 07:00:00 7.4 0 Calma -- -- 0 -- -- 100
2019-08-22 06:00:00 8.2 0 Calma -- -- 0 -- -- 100
2019-08-22 05:00:00 9.3 0 Calma 0 Calma 0 -- -- 99
2019-08-22 04:00:00 10.3 0 Calma 0 Calma 0 -- -- 99
2019-08-22 03:00:00 11.4 0 Calma 3 Sur 0 -- -- 98
2019-08-22 02:00:00 12.9 0 Calma 4 Este 0 -- -- 97
2019-08-22 01:00:00 14.1 0 Calma 0 Calma 0 -- -- 98
2019-08-22 00:00:00 15 0 Calma 3 Este 0 -- -- 95
2019-08-21 23:00:00 16.3 0 Calma 3 Oeste 0 -- -- 95
2019-08-21 22:00:00 17.2 0 Calma 4 Sudoeste 0 -- -- 92
2019-08-21 21:00:00 18.6 0 Calma 16 Oeste 0 -- -- 88
2019-08-21 20:00:00 19.2 6 Oeste 14 Oeste 0 -- -- 83
2019-08-21 19:00:00 19.9 5 Noroeste 15 Noroeste 0 -- -- 80
2019-08-21 18:00:00 20.4 4 Sudoeste 17 Oeste 0 -- -- 78
2019-08-21 17:00:00 21.3 11 Oeste 18 Oeste 0 -- -- 75
2019-08-21 16:00:00 23.5 5 Noroeste 17 Oeste 0 -- -- 70
2019-08-21 15:00:00 22.9 4 Noroeste 11 Oeste 0 -- -- 66
2019-08-21 14:00:00 21.2 4 Sur 11 Noroeste 0 -- -- 70
2019-08-21 13:00:00 19.7 5 Oeste 17 Noroeste 0 -- -- 75
2019-08-21 12:00:00 20.1 9 Noroeste 14 Noroeste 0 -- -- 77
2019-08-21 11:00:00 16.6 4 Noroeste 10 Noroeste 0 -- -- 84
2019-08-21 10:00:00 13.4 3 Noroeste 6 Noroeste 0 -- -- 99
2019-08-21 09:00:00 11 0 Calma 8 Sudoeste 0 -- -- 100
2019-08-21 08:00:00 10.5 5 Noroeste 18 Este 0 -- -- 100
2019-08-21 07:00:00 9.5 0 Calma 4 Sudoeste 0 -- -- 100
2019-08-21 06:00:00 9.9 0 Calma 6 Este 0 -- -- 100
2019-08-21 05:00:00 9.9 0 Calma 2 Sudeste 0 -- -- 100
2019-08-21 04:00:00 9.6 0 Calma 5 Este 0 -- -- 100
2019-08-21 03:00:00 8.8 0 Calma 3 Sur 0 -- -- 100
2019-08-21 02:00:00 9.2 0 Calma 4 Sur 0 -- -- 99
2019-08-21 01:00:00 9.9 0 Calma 3 Nordeste 0 -- -- 98
2019-08-21 00:00:00 11 0 Calma 4 Sudeste 0 -- -- 97